Johnsbury, Vermont
Current Conditions -  °F | °C
As of 4:35 PM on Thursday 23 Oct 2014 (Local Time) from KCDA Reporting Station
Overcast Overcast  
Wind Chill: 45°   Ceiling: 2600
Heat Index: 49°   Visibility: 10mi
Dew Point: 43°   Wind: 9mph
Humidity: 80%   Direction: 320°NW
Pressure: 29.86"   Gusts: NA
Location:  44.4161°N, 71.9767°W
Report Text: KCDA 232035Z AUTO 32008KT 10SM BKN026 BKN030 OVC039 09/06 A2986 RMK AO2 T00920060
Loading
Personal Weather Stations






























Interactive Weather Map
Tropical Storm Tracking
New forecast layout! Learn more

10-Day Weather Forecast

Advertisements
Track Severe Weather on mobile